sensor_id;sensor_type;location;lat;lon;timestamp;P1;durP1;ratioP1;P2;durP2;ratioP2
50695;SDS011;36665;51.786;21.594;2023-05-07T00:04:34;4.90;;;2.20;;
50695;SDS011;36665;51.786;21.594;2023-05-07T00:13:00;2.60;;;2.20;;
50695;SDS011;36665;51.786;21.594;2023-05-07T00:21:23;3.10;;;1.80;;
50695;SDS011;36665;51.786;21.594;2023-05-07T00:29:49;2.50;;;2.00;;
50695;SDS011;36665;51.786;21.594;2023-05-07T00:38:12;4.60;;;2.10;;
50695;SDS011;36665;51.786;21.594;2023-05-07T00:46:35;2.30;;;1.70;;
50695;SDS011;36665;51.786;21.594;2023-05-07T00:55:01;2.30;;;1.20;;
50695;SDS011;36665;51.786;21.594;2023-05-07T01:03:28;2.20;;;1.30;;
50695;SDS011;36665;51.786;21.594;2023-05-07T01:11:52;3.00;;;1.80;;
50695;SDS011;36665;51.786;21.594;2023-05-07T01:20:18;1.80;;;1.40;;
50695;SDS011;36665;51.786;21.594;2023-05-07T01:28:42;1.20;;;1.10;;
50695;SDS011;36665;51.786;21.594;2023-05-07T01:37:06;1.20;;;1.10;;
50695;SDS011;36665;51.786;21.594;2023-05-07T01:45:30;1.70;;;1.20;;
50695;SDS011;36665;51.786;21.594;2023-05-07T01:53:54;1.70;;;1.40;;
50695;SDS011;36665;51.786;21.594;2023-05-07T02:02:18;3.80;;;1.50;;
50695;SDS011;36665;51.786;21.594;2023-05-07T02:10:41;6.70;;;3.50;;
50695;SDS011;36665;51.786;21.594;2023-05-07T02:19:05;1.80;;;1.60;;
50695;SDS011;36665;51.786;21.594;2023-05-07T02:27:28;3.30;;;1.70;;
50695;SDS011;36665;51.786;21.594;2023-05-07T02:35:51;3.20;;;1.40;;
50695;SDS011;36665;51.786;21.594;2023-05-07T02:44:14;2.00;;;1.60;;
50695;SDS011;36665;51.786;21.594;2023-05-07T02:52:39;2.40;;;1.80;;
50695;SDS011;36665;51.786;21.594;2023-05-07T03:01:02;2.40;;;1.50;;
50695;SDS011;36665;51.786;21.594;2023-05-07T03:09:46;3.10;;;1.60;;
50695;SDS011;36665;51.786;21.594;2023-05-07T03:18:09;2.30;;;1.10;;
50695;SDS011;36665;51.786;21.594;2023-05-07T03:26:33;2.50;;;1.70;;
50695;SDS011;36665;51.786;21.594;2023-05-07T03:34:56;2.90;;;1.70;;
50695;SDS011;36665;51.786;21.594;2023-05-07T03:43:20;1.50;;;1.30;;
50695;SDS011;36665;51.786;21.594;2023-05-07T03:51:46;2.30;;;1.50;;
50695;SDS011;36665;51.786;21.594;2023-05-07T04:00:10;2.40;;;1.50;;
50695;SDS011;36665;51.786;21.594;2023-05-07T04:08:43;1.40;;;1.30;;
50695;SDS011;36665;51.786;21.594;2023-05-07T04:17:08;2.50;;;1.50;;
50695;SDS011;36665;51.786;21.594;2023-05-07T04:25:33;1.80;;;1.60;;
50695;SDS011;36665;51.786;21.594;2023-05-07T04:34:05;2.00;;;1.50;;
50695;SDS011;36665;51.786;21.594;2023-05-07T04:42:28;5.30;;;2.00;;
50695;SDS011;36665;51.786;21.594;2023-05-07T04:50:51;2.50;;;1.70;;
50695;SDS011;36665;51.786;21.594;2023-05-07T04:59:15;4.30;;;1.70;;
50695;SDS011;36665;51.786;21.594;2023-05-07T05:07:38;2.40;;;1.60;;
50695;SDS011;36665;51.786;21.594;2023-05-07T05:16:01;1.60;;;1.40;;
50695;SDS011;36665;51.786;21.594;2023-05-07T05:24:26;5.10;;;1.60;;
50695;SDS011;36665;51.786;21.594;2023-05-07T05:32:50;3.10;;;1.60;;
50695;SDS011;36665;51.786;21.594;2023-05-07T05:41:13;2.90;;;1.50;;
50695;SDS011;36665;51.786;21.594;2023-05-07T05:49:37;2.70;;;1.80;;
50695;SDS011;36665;51.786;21.594;2023-05-07T05:58:00;4.10;;;1.50;;
50695;SDS011;36665;51.786;21.594;2023-05-07T06:06:24;2.70;;;1.60;;
50695;SDS011;36665;51.786;21.594;2023-05-07T06:14:49;3.20;;;1.80;;
50695;SDS011;36665;51.786;21.594;2023-05-07T06:23:13;3.00;;;1.50;;
50695;SDS011;36665;51.786;21.594;2023-05-07T06:31:39;3.80;;;2.50;;
50695;SDS011;36665;51.786;21.594;2023-05-07T06:40:04;4.00;;;1.70;;
50695;SDS011;36665;51.786;21.594;2023-05-07T06:48:30;6.70;;;3.10;;
50695;SDS011;36665;51.786;21.594;2023-05-07T06:56:56;5.60;;;2.80;;
50695;SDS011;36665;51.786;21.594;2023-05-07T07:05:21;4.00;;;1.70;;
50695;SDS011;36665;51.786;21.594;2023-05-07T07:13:45;2.80;;;2.00;;
50695;SDS011;36665;51.786;21.594;2023-05-07T07:22:08;6.40;;;3.10;;
50695;SDS011;36665;51.786;21.594;2023-05-07T07:30:31;5.30;;;2.10;;
50695;SDS011;36665;51.786;21.594;2023-05-07T07:38:55;3.50;;;2.00;;
50695;SDS011;36665;51.786;21.594;2023-05-07T07:47:18;7.80;;;5.60;;
50695;SDS011;36665;51.786;21.594;2023-05-07T07:55:42;2.40;;;1.40;;
50695;SDS011;36665;51.786;21.594;2023-05-07T08:04:08;4.00;;;2.30;;
50695;SDS011;36665;51.786;21.594;2023-05-07T08:12:34;2.70;;;1.60;;
50695;SDS011;36665;51.786;21.594;2023-05-07T08:20:57;3.90;;;2.20;;
50695;SDS011;36665;51.786;21.594;2023-05-07T08:29:21;2.60;;;1.60;;
50695;SDS011;36665;51.786;21.594;2023-05-07T08:37:44;3.70;;;2.90;;
50695;SDS011;36665;51.786;21.594;2023-05-07T08:46:08;2.50;;;1.70;;
50695;SDS011;36665;51.786;21.594;2023-05-07T08:54:37;6.10;;;2.60;;
50695;SDS011;36665;51.786;21.594;2023-05-07T09:03:03;5.10;;;3.20;;
50695;SDS011;36665;51.786;21.594;2023-05-07T09:11:29;5.60;;;3.60;;
50695;SDS011;36665;51.786;21.594;2023-05-07T09:19:54;2.40;;;1.70;;
50695;SDS011;36665;51.786;21.594;2023-05-07T09:28:18;2.50;;;1.80;;
50695;SDS011;36665;51.786;21.594;2023-05-07T09:36:41;4.00;;;2.30;;
50695;SDS011;36665;51.786;21.594;2023-05-07T09:45:05;3.30;;;2.30;;
50695;SDS011;36665;51.786;21.594;2023-05-07T09:53:31;2.20;;;1.70;;
50695;SDS011;36665;51.786;21.594;2023-05-07T10:01:58;22.40;;;14.60;;
50695;SDS011;36665;51.786;21.594;2023-05-07T10:10:32;6.70;;;2.30;;
50695;SDS011;36665;51.786;21.594;2023-05-07T10:18:59;5.10;;;2.10;;
50695;SDS011;36665;51.786;21.594;2023-05-07T10:27:28;4.00;;;2.30;;
50695;SDS011;36665;51.786;21.594;2023-05-07T10:35:55;2.50;;;2.10;;
50695;SDS011;36665;51.786;21.594;2023-05-07T10:44:26;44.50;;;25.00;;
50695;SDS011;36665;51.786;21.594;2023-05-07T11:02:05;9.80;;;2.80;;
50695;SDS011;36665;51.786;21.594;2023-05-07T11:10:57;4.40;;;2.70;;
50695;SDS011;36665;51.786;21.594;2023-05-07T11:19:50;3.60;;;2.20;;
50695;SDS011;36665;51.786;21.594;2023-05-07T11:28:41;3.00;;;2.10;;
50695;SDS011;36665;51.786;21.594;2023-05-07T11:37:06;4.60;;;2.50;;
50695;SDS011;36665;51.786;21.594;2023-05-07T11:45:46;3.60;;;2.20;;
50695;SDS011;36665;51.786;21.594;2023-05-07T11:54:10;84.60;;;48.20;;
50695;SDS011;36665;51.786;21.594;2023-05-07T12:02:34;3.60;;;2.20;;
50695;SDS011;36665;51.786;21.594;2023-05-07T12:10:57;7.20;;;2.50;;
50695;SDS011;36665;51.786;21.594;2023-05-07T12:19:21;4.00;;;2.80;;
50695;SDS011;36665;51.786;21.594;2023-05-07T12:27:45;23.60;;;12.60;;
50695;SDS011;36665;51.786;21.594;2023-05-07T12:36:36;6.90;;;3.00;;
50695;SDS011;36665;51.786;21.594;2023-05-07T12:45:08;3.60;;;2.20;;
50695;SDS011;36665;51.786;21.594;2023-05-07T12:53:39;5.70;;;2.90;;
50695;SDS011;36665;51.786;21.594;2023-05-07T13:02:07;3.30;;;2.60;;
50695;SDS011;36665;51.786;21.594;2023-05-07T13:10:34;5.10;;;2.90;;
50695;SDS011;36665;51.786;21.594;2023-05-07T13:18:57;3.90;;;2.50;;
50695;SDS011;36665;51.786;21.594;2023-05-07T13:27:21;4.80;;;2.60;;
50695;SDS011;36665;51.786;21.594;2023-05-07T13:35:44;6.20;;;2.70;;
50695;SDS011;36665;51.786;21.594;2023-05-07T13:44:07;6.80;;;2.70;;
50695;SDS011;36665;51.786;21.594;2023-05-07T13:52:31;14.70;;;8.90;;
50695;SDS011;36665;51.786;21.594;2023-05-07T14:00:54;3.80;;;2.10;;
50695;SDS011;36665;51.786;21.594;2023-05-07T14:09:34;3.60;;;2.10;;
50695;SDS011;36665;51.786;21.594;2023-05-07T14:17:57;2.70;;;2.10;;
50695;SDS011;36665;51.786;21.594;2023-05-07T14:26:25;3.00;;;2.20;;
50695;SDS011;36665;51.786;21.594;2023-05-07T14:34:49;2.80;;;1.80;;
50695;SDS011;36665;51.786;21.594;2023-05-07T14:43:22;3.30;;;2.10;;
50695;SDS011;36665;51.786;21.594;2023-05-07T14:51:47;2.20;;;1.50;;
50695;SDS011;36665;51.786;21.594;2023-05-07T15:00:12;4.00;;;2.20;;
50695;SDS011;36665;51.786;21.594;2023-05-07T15:08:36;6.30;;;3.40;;
50695;SDS011;36665;51.786;21.594;2023-05-07T15:17:02;3.70;;;2.40;;
50695;SDS011;36665;51.786;21.594;2023-05-07T15:25:55;2.90;;;1.90;;
50695;SDS011;36665;51.786;21.594;2023-05-07T15:34:33;4.00;;;2.10;;
50695;SDS011;36665;51.786;21.594;2023-05-07T15:42:57;4.40;;;1.90;;
50695;SDS011;36665;51.786;21.594;2023-05-07T15:52:36;2.80;;;1.80;;
50695;SDS011;36665;51.786;21.594;2023-05-07T16:01:05;21.50;;;13.80;;
50695;SDS011;36665;51.786;21.594;2023-05-07T16:10:33;4.70;;;1.60;;
50695;SDS011;36665;51.786;21.594;2023-05-07T16:20:02;2.20;;;1.20;;
50695;SDS011;36665;51.786;21.594;2023-05-07T16:29:06;3.60;;;2.10;;
50695;SDS011;36665;51.786;21.594;2023-05-07T16:37:46;5.30;;;3.60;;
50695;SDS011;36665;51.786;21.594;2023-05-07T16:46:57;3.60;;;1.60;;
50695;SDS011;36665;51.786;21.594;2023-05-07T16:55:20;3.80;;;2.60;;
50695;SDS011;36665;51.786;21.594;2023-05-07T17:03:43;3.30;;;2.40;;
50695;SDS011;36665;51.786;21.594;2023-05-07T17:12:07;4.00;;;2.10;;
50695;SDS011;36665;51.786;21.594;2023-05-07T17:20:30;2.10;;;1.20;;
50695;SDS011;36665;51.786;21.594;2023-05-07T17:28:54;6.90;;;3.80;;
50695;SDS011;36665;51.786;21.594;2023-05-07T17:37:18;16.10;;;10.10;;
50695;SDS011;36665;51.786;21.594;2023-05-07T17:45:42;22.50;;;12.70;;
50695;SDS011;36665;51.786;21.594;2023-05-07T17:54:05;11.80;;;5.80;;
50695;SDS011;36665;51.786;21.594;2023-05-07T18:02:29;28.50;;;20.30;;
50695;SDS011;36665;51.786;21.594;2023-05-07T18:10:53;10.50;;;7.40;;
50695;SDS011;36665;51.786;21.594;2023-05-07T18:19:17;7.60;;;2.90;;
50695;SDS011;36665;51.786;21.594;2023-05-07T18:27:40;3.20;;;1.90;;
50695;SDS011;36665;51.786;21.594;2023-05-07T18:36:03;5.50;;;2.60;;
50695;SDS011;36665;51.786;21.594;2023-05-07T18:44:26;9.00;;;3.20;;
50695;SDS011;36665;51.786;21.594;2023-05-07T18:52:49;32.00;;;12.00;;
50695;SDS011;36665;51.786;21.594;2023-05-07T19:01:12;26.50;;;7.70;;
50695;SDS011;36665;51.786;21.594;2023-05-07T19:09:36;11.50;;;5.50;;
50695;SDS011;36665;51.786;21.594;2023-05-07T19:17:59;5.60;;;4.60;;
50695;SDS011;36665;51.786;21.594;2023-05-07T19:26:22;13.00;;;6.40;;
50695;SDS011;36665;51.786;21.594;2023-05-07T19:34:47;16.10;;;7.40;;
50695;SDS011;36665;51.786;21.594;2023-05-07T19:43:10;11.90;;;6.80;;
50695;SDS011;36665;51.786;21.594;2023-05-07T19:51:38;20.40;;;8.80;;
50695;SDS011;36665;51.786;21.594;2023-05-07T20:00:02;28.20;;;13.30;;
50695;SDS011;36665;51.786;21.594;2023-05-07T20:08:34;58.00;;;25.10;;
50695;SDS011;36665;51.786;21.594;2023-05-07T20:16:57;90.80;;;36.40;;
50695;SDS011;36665;51.786;21.594;2023-05-07T20:25:23;110.50;;;46.10;;
50695;SDS011;36665;51.786;21.594;2023-05-07T20:33:47;80.20;;;40.80;;
50695;SDS011;36665;51.786;21.594;2023-05-07T20:42:10;85.60;;;39.80;;
50695;SDS011;36665;51.786;21.594;2023-05-07T20:50:33;78.70;;;31.40;;
50695;SDS011;36665;51.786;21.594;2023-05-07T20:58:57;72.50;;;36.70;;
50695;SDS011;36665;51.786;21.594;2023-05-07T21:07:20;54.90;;;25.50;;
50695;SDS011;36665;51.786;21.594;2023-05-07T21:15:43;49.80;;;23.60;;
50695;SDS011;36665;51.786;21.594;2023-05-07T21:24:07;52.80;;;25.00;;
50695;SDS011;36665;51.786;21.594;2023-05-07T21:32:30;46.40;;;20.10;;
50695;SDS011;36665;51.786;21.594;2023-05-07T21:40:53;52.50;;;19.80;;
50695;SDS011;36665;51.786;21.594;2023-05-07T21:49:16;39.10;;;18.10;;
50695;SDS011;36665;51.786;21.594;2023-05-07T21:57:39;31.90;;;15.80;;
50695;SDS011;36665;51.786;21.594;2023-05-07T22:06:10;31.40;;;13.20;;
50695;SDS011;36665;51.786;21.594;2023-05-07T22:14:33;42.60;;;17.00;;
50695;SDS011;36665;51.786;21.594;2023-05-07T22:22:57;27.60;;;11.70;;
50695;SDS011;36665;51.786;21.594;2023-05-07T22:31:21;30.10;;;13.00;;
50695;SDS011;36665;51.786;21.594;2023-05-07T22:39:44;37.80;;;15.10;;
50695;SDS011;36665;51.786;21.594;2023-05-07T22:48:07;36.20;;;13.30;;
50695;SDS011;36665;51.786;21.594;2023-05-07T22:56:31;51.50;;;17.80;;
50695;SDS011;36665;51.786;21.594;2023-05-07T23:04:54;31.50;;;11.50;;
50695;SDS011;36665;51.786;21.594;2023-05-07T23:13:19;18.70;;;9.30;;
50695;SDS011;36665;51.786;21.594;2023-05-07T23:21:42;18.00;;;9.00;;
50695;SDS011;36665;51.786;21.594;2023-05-07T23:30:11;11.90;;;6.60;;
50695;SDS011;36665;51.786;21.594;2023-05-07T23:38:35;14.70;;;6.30;;
50695;SDS011;36665;51.786;21.594;2023-05-07T23:46:58;20.50;;;8.20;;
50695;SDS011;36665;51.786;21.594;2023-05-07T23:55:21;19.90;;;7.40;;
